createdAt,value
2023-02-05T00:02:28.991Z,0.56
2023-02-05T00:05:30.552Z,0.51
2023-02-05T00:08:33.673Z,0.43
2023-02-05T00:11:35.389Z,0.38
2023-02-05T00:14:36.915Z,0.36
2023-02-05T00:17:38.383Z,0.30
2023-02-05T00:20:39.968Z,0.23
2023-02-05T00:23:41.934Z,0.22
2023-02-05T00:26:43.567Z,0.28
2023-02-05T00:29:44.980Z,0.30
2023-02-05T00:32:46.452Z,0.26
2023-02-05T00:35:47.937Z,0.18
2023-02-05T00:38:49.694Z,0.16
2023-02-05T00:41:51.257Z,0.15
2023-02-05T00:44:52.745Z,0.11
2023-02-05T00:47:54.186Z,0.05
2023-02-05T00:50:55.812Z,-0.01
2023-02-05T00:53:57.354Z,0.02
2023-02-05T00:56:59.019Z,0.10
2023-02-05T01:00:00.619Z,0.07
2023-02-05T01:03:02.153Z,0.06
2023-02-05T01:06:03.665Z,0.01
2023-02-05T01:09:05.217Z,-0.02
2023-02-05T01:12:06.826Z,-0.14
2023-02-05T01:15:11.974Z,-0.22
2023-02-05T01:18:14.230Z,-0.34
2023-02-05T01:21:15.753Z,-0.24
2023-02-05T01:24:18.300Z,-0.20
2023-02-05T01:27:19.770Z,-0.25
2023-02-05T01:30:22.092Z,-0.28
2023-02-05T01:33:23.621Z,-0.31
2023-02-05T01:36:25.348Z,-0.23
2023-02-05T01:39:26.860Z,-0.26
2023-02-05T01:42:31.678Z,-0.29
2023-02-05T01:45:50.724Z,-0.29
2023-02-05T01:48:57.840Z,-0.29
2023-02-05T01:52:06.565Z,-0.27
2023-02-05T01:55:08.668Z,-0.34
2023-02-05T01:58:10.535Z,-0.34
2023-02-05T02:01:11.994Z,-0.41
2023-02-05T02:04:18.746Z,-0.42
2023-02-05T02:07:23.747Z,-0.48
2023-02-05T02:10:26.383Z,-0.51
2023-02-05T02:13:30.055Z,-0.54
2023-02-05T02:16:32.772Z,-0.66
2023-02-05T02:19:43.395Z,-0.64
2023-02-05T02:23:22.382Z,-0.67
2023-02-05T02:26:42.562Z,-0.75
2023-02-05T02:30:09.123Z,-0.78
2023-02-05T02:33:31.868Z,-0.81
2023-02-05T02:37:00.024Z,-0.76
2023-02-05T02:40:26.600Z,-0.72
2023-02-05T02:43:54.549Z,-0.74
2023-02-05T02:46:59.021Z,-0.77
2023-02-05T02:50:19.742Z,-0.80
2023-02-05T02:53:26.606Z,-0.78
2023-02-05T02:56:32.714Z,-0.79
2023-02-05T02:59:38.207Z,-0.84
2023-02-05T03:02:42.302Z,-0.87
2023-02-05T03:05:45.884Z,-0.86
2023-02-05T03:08:56.810Z,-0.88
2023-02-05T03:11:59.947Z,-1.02
2023-02-05T03:15:01.601Z,-1.01
2023-02-05T03:18:04.265Z,-0.95
2023-02-05T03:21:13.427Z,-0.98
2023-02-05T03:24:15.017Z,-1.09
2023-02-05T03:27:16.606Z,-1.11
2023-02-05T03:30:19.094Z,-1.11
2023-02-05T03:33:58.597Z,-1.19
2023-02-05T03:37:06.633Z,-1.21
2023-02-05T03:40:43.018Z,-1.20
2023-02-05T03:44:08.894Z,-1.24
2023-02-05T03:47:37.533Z,-1.23
2023-02-05T03:50:46.824Z,-1.20
2023-02-05T03:54:01.722Z,-1.18
2023-02-05T03:57:36.669Z,-1.20
2023-02-05T04:00:39.735Z,-1.23
2023-02-05T04:03:41.680Z,-1.21
2023-02-05T04:06:47.342Z,-1.20
2023-02-05T04:09:48.919Z,-1.22
2023-02-05T04:12:50.407Z,-1.20
2023-02-05T04:15:53.110Z,-1.21
2023-02-05T04:18:54.659Z,-1.17
2023-02-05T04:21:56.473Z,-1.23
2023-02-05T04:24:57.967Z,-1.34
2023-02-05T04:28:00.495Z,-1.41
2023-02-05T04:31:02.666Z,-1.38
2023-02-05T04:34:06.961Z,-1.35
2023-02-05T04:37:08.536Z,-1.30
2023-02-05T04:40:10.331Z,-1.32
2023-02-05T04:43:11.769Z,-1.31
2023-02-05T04:46:13.273Z,-1.29
2023-02-05T04:49:15.016Z,-1.27
2023-02-05T04:52:16.421Z,-1.30
2023-02-05T04:55:17.889Z,-1.34
2023-02-05T04:58:21.011Z,-1.22
2023-02-05T05:01:23.478Z,-1.09
2023-02-05T05:04:25.032Z,-0.95
2023-02-05T05:07:26.600Z,-0.81
2023-02-05T05:10:28.143Z,-0.71
2023-02-05T05:13:29.622Z,-0.62
2023-02-05T05:16:31.251Z,-0.55
2023-02-05T05:19:33.097Z,-0.61
2023-02-05T05:22:34.554Z,-0.50
2023-02-05T05:25:45.513Z,-0.47
2023-02-05T05:28:47.033Z,-0.37
2023-02-05T05:31:51.447Z,-0.36
2023-02-05T05:34:53.006Z,-0.28
2023-02-05T05:37:57.135Z,-0.25
2023-02-05T05:41:17.434Z,-0.22
2023-02-05T05:44:18.853Z,-0.11
2023-02-05T05:47:20.497Z,0.03
2023-02-05T05:50:21.987Z,0.11
2023-02-05T05:53:23.841Z,0.12
2023-02-05T05:56:25.341Z,0.16
2023-02-05T05:59:26.835Z,0.14
2023-02-05T06:02:28.364Z,0.11
2023-02-05T06:05:30.471Z,0.18
2023-02-05T06:08:32.523Z,0.17
2023-02-05T06:11:34.089Z,0.22
2023-02-05T06:14:35.608Z,0.26
2023-02-05T06:17:37.198Z,0.30
2023-02-05T06:20:38.679Z,0.32
2023-02-05T06:23:40.112Z,0.36
2023-02-05T06:26:41.565Z,0.31
2023-02-05T06:29:43.121Z,0.31
2023-02-05T06:32:44.543Z,0.40
2023-02-05T06:35:46.545Z,0.44
2023-02-05T06:38:47.970Z,0.51
2023-02-05T06:41:49.458Z,0.54
2023-02-05T06:44:50.868Z,0.57
2023-02-05T06:47:55.879Z,0.62
2023-02-05T06:50:57.367Z,0.60
2023-02-05T06:54:00.306Z,0.67
2023-02-05T06:57:01.819Z,0.73
2023-02-05T07:00:05.952Z,0.78
2023-02-05T07:03:07.374Z,0.77
2023-02-05T07:06:08.836Z,0.75
2023-02-05T07:09:10.481Z,0.82
2023-02-05T07:12:12.059Z,0.82
2023-02-05T07:15:13.613Z,0.86
2023-02-05T07:18:15.275Z,0.94
2023-02-05T07:21:17.146Z,0.91
2023-02-05T07:24:18.700Z,0.94
2023-02-05T07:27:20.206Z,1.07
2023-02-05T07:30:21.837Z,1.19
2023-02-05T07:33:23.303Z,1.26
2023-02-05T07:36:24.795Z,1.38
2023-02-05T07:39:28.049Z,1.41
2023-02-05T07:42:31.670Z,1.51
2023-02-05T07:45:36.175Z,1.50
2023-02-05T07:48:38.070Z,1.58
2023-02-05T07:51:39.514Z,1.58
2023-02-05T07:54:41.218Z,1.62
2023-02-05T07:57:42.718Z,1.64
2023-02-05T08:00:44.352Z,1.65
2023-02-05T08:03:45.853Z,1.62
2023-02-05T08:06:47.365Z,1.60
2023-02-05T08:09:48.856Z,1.56
2023-02-05T08:12:50.345Z,1.63
2023-02-05T08:15:52.031Z,1.69
2023-02-05T08:18:53.622Z,1.74
2023-02-05T08:21:55.111Z,1.85
2023-02-05T08:24:56.544Z,1.91
2023-02-05T08:27:58.053Z,1.96
2023-02-05T08:30:59.635Z,2.01
2023-02-05T08:34:01.745Z,2.09
2023-02-05T08:37:03.407Z,2.10
2023-02-05T08:40:05.075Z,2.11
2023-02-05T08:43:08.460Z,2.12
2023-02-05T08:46:10.880Z,2.19
2023-02-05T08:49:12.424Z,2.28
2023-02-05T08:52:14.149Z,2.38
2023-02-05T08:55:18.183Z,2.44
2023-02-05T08:58:19.672Z,2.47
2023-02-05T09:01:21.646Z,2.52
2023-02-05T09:04:23.529Z,2.43
2023-02-05T09:07:25.131Z,2.43
2023-02-05T09:10:26.580Z,2.54
2023-02-05T09:13:28.617Z,2.56
2023-02-05T09:16:30.108Z,2.60
2023-02-05T09:19:34.948Z,2.64
2023-02-05T09:22:36.657Z,2.71
2023-02-05T09:25:39.595Z,2.79
2023-02-05T09:28:41.090Z,2.91
2023-02-05T09:31:42.639Z,3.00
2023-02-05T09:34:44.218Z,3.10
2023-02-05T09:37:45.719Z,3.09
2023-02-05T09:41:01.632Z,3.17
2023-02-05T09:44:21.023Z,3.28
2023-02-05T09:47:44.554Z,3.31
2023-02-05T09:50:46.092Z,3.30
2023-02-05T09:53:53.771Z,3.27
2023-02-05T09:57:00.590Z,3.25
2023-02-05T10:00:05.311Z,3.35
2023-02-05T10:03:13.796Z,3.45
2023-02-05T10:06:41.091Z,3.53
2023-02-05T10:10:04.152Z,3.64
2023-02-05T10:13:10.550Z,3.65
2023-02-05T10:16:20.767Z,3.69
2023-02-05T10:19:47.100Z,3.72
2023-02-05T10:23:05.166Z,3.74
2023-02-05T10:26:09.802Z,3.66
2023-02-05T10:29:17.248Z,3.70
2023-02-05T10:32:25.242Z,3.73
2023-02-05T10:35:37.033Z,3.72
2023-02-05T10:38:44.470Z,3.65
2023-02-05T10:42:01.776Z,3.77
2023-02-05T10:45:25.957Z,3.94
2023-02-05T10:48:43.780Z,3.86
2023-02-05T10:51:46.190Z,3.86
2023-02-05T10:54:48.072Z,3.87
2023-02-05T10:57:49.618Z,3.76
2023-02-05T11:00:51.745Z,3.62
2023-02-05T11:03:58.691Z,3.57
2023-02-05T11:07:05.973Z,3.48
2023-02-05T11:10:23.518Z,3.47
2023-02-05T11:13:25.919Z,3.57
2023-02-05T11:16:38.610Z,3.58
2023-02-05T11:19:40.311Z,3.62
2023-02-05T11:22:41.794Z,3.66
2023-02-05T11:26:01.576Z,3.67
2023-02-05T11:29:19.704Z,3.68
2023-02-05T11:32:38.592Z,3.75
2023-02-05T11:35:40.238Z,3.83
2023-02-05T11:38:51.611Z,3.91
2023-02-05T11:41:56.519Z,4.02
2023-02-05T11:45:01.885Z,4.16
2023-02-05T11:48:33.249Z,4.24
2023-02-05T11:51:34.689Z,4.08
2023-02-05T11:54:37.371Z,3.99
2023-02-05T11:57:39.236Z,3.95
2023-02-05T12:00:50.807Z,4.01
2023-02-05T12:04:18.149Z,4.20
2023-02-05T12:07:21.634Z,4.25
2023-02-05T12:10:43.149Z,4.20
2023-02-05T12:14:02.153Z,4.21
2023-02-05T12:17:15.680Z,4.23
2023-02-05T12:20:27.829Z,4.33
2023-02-05T12:23:52.387Z,4.35
2023-02-05T12:27:07.449Z,4.31
2023-02-05T12:30:35.856Z,4.33
2023-02-05T12:33:59.162Z,4.36
2023-02-05T12:37:31.696Z,4.36
2023-02-05T12:40:43.968Z,4.41
2023-02-05T12:43:47.658Z,4.40
2023-02-05T12:47:10.093Z,4.28
2023-02-05T12:50:45.372Z,4.26
2023-02-05T12:54:09.362Z,4.26
2023-02-05T12:57:18.868Z,4.39
2023-02-05T13:00:27.133Z,4.49
2023-02-05T13:03:43.586Z,4.56
2023-02-05T13:06:53.240Z,4.66
2023-02-05T13:10:05.518Z,4.77
2023-02-05T13:13:13.935Z,4.80
2023-02-05T13:16:18.183Z,4.74
2023-02-05T13:19:25.959Z,4.56
2023-02-05T13:22:54.668Z,4.53
2023-02-05T13:26:08.550Z,4.44
2023-02-05T13:29:13.822Z,4.39
2023-02-05T13:32:16.560Z,4.30
2023-02-05T13:35:20.053Z,4.30
2023-02-05T13:38:54.063Z,4.33
2023-02-05T13:42:13.071Z,4.33
2023-02-05T13:45:37.206Z,4.34
2023-02-05T13:49:14.535Z,4.39
2023-02-05T13:52:50.820Z,4.42
2023-02-05T13:56:36.801Z,4.39
2023-02-05T13:59:43.421Z,4.46
2023-02-05T14:02:53.355Z,4.41
2023-02-05T14:05:56.991Z,4.43
2023-02-05T14:09:03.314Z,4.49
2023-02-05T14:12:08.843Z,4.42
2023-02-05T14:15:16.548Z,4.42
2023-02-05T14:18:47.050Z,4.37
2023-02-05T14:21:57.101Z,4.36
2023-02-05T14:24:58.786Z,4.35
2023-02-05T14:28:00.691Z,4.29
2023-02-05T14:31:04.221Z,4.29
2023-02-05T14:34:28.883Z,4.20
2023-02-05T14:37:39.712Z,4.19
2023-02-05T14:40:41.564Z,4.19
2023-02-05T14:43:55.920Z,4.17
2023-02-05T14:47:20.681Z,4.17
2023-02-05T14:50:24.160Z,4.12
2023-02-05T14:53:29.695Z,4.11
2023-02-05T14:56:40.475Z,4.01
2023-02-05T14:59:53.479Z,3.93
2023-02-05T15:03:12.485Z,3.90
2023-02-05T15:06:16.626Z,3.78
2023-02-05T15:09:20.957Z,3.58
2023-02-05T15:12:58.100Z,3.61
2023-02-05T15:16:11.509Z,3.69
2023-02-05T15:19:17.054Z,3.76
2023-02-05T15:22:34.355Z,3.87
2023-02-05T15:25:40.202Z,3.91
2023-02-05T15:28:56.335Z,3.91
2023-02-05T15:32:03.385Z,3.89
2023-02-05T15:35:21.374Z,3.77
2023-02-05T15:38:48.261Z,3.67
2023-02-05T15:41:53.035Z,3.51
2023-02-05T15:44:54.797Z,3.51
2023-02-05T15:48:22.572Z,3.60
2023-02-05T15:51:42.364Z,3.55
2023-02-05T15:54:43.825Z,3.51
2023-02-05T15:57:45.671Z,3.43
2023-02-05T16:00:49.730Z,3.41
2023-02-05T16:03:51.372Z,3.33
2023-02-05T16:06:52.945Z,3.21
2023-02-05T16:09:58.238Z,3.22
2023-02-05T16:13:04.762Z,3.18
2023-02-05T16:16:15.253Z,3.03
2023-02-05T16:19:22.459Z,3.01
2023-02-05T16:22:55.348Z,3.01
2023-02-05T16:26:03.149Z,3.06
2023-02-05T16:29:11.735Z,3.13
2023-02-05T16:32:30.638Z,3.10
2023-02-05T16:35:42.433Z,3.08
2023-02-05T16:38:44.058Z,3.00
2023-02-05T16:41:45.816Z,2.97
2023-02-05T16:44:48.680Z,2.84
2023-02-05T16:48:28.802Z,2.87
2023-02-05T16:51:35.349Z,2.93
2023-02-05T16:54:38.735Z,2.95
2023-02-05T16:57:40.433Z,2.87
2023-02-05T17:00:42.034Z,2.86
2023-02-05T17:03:49.139Z,2.78
2023-02-05T17:06:52.495Z,2.82
2023-02-05T17:10:25.246Z,2.83
2023-02-05T17:13:36.488Z,2.80
2023-02-05T17:16:42.401Z,2.81
2023-02-05T17:19:44.380Z,2.77
2023-02-05T17:23:15.793Z,2.72
2023-02-05T17:26:18.066Z,2.73
2023-02-05T17:29:20.110Z,2.85
2023-02-05T17:32:22.591Z,2.84
2023-02-05T17:35:27.068Z,2.86
2023-02-05T17:38:28.582Z,2.89
2023-02-05T17:41:54.068Z,2.91
2023-02-05T17:44:56.027Z,2.88
2023-02-05T17:47:57.529Z,2.89
2023-02-05T17:50:59.251Z,2.88
2023-02-05T17:54:02.202Z,2.81
2023-02-05T17:57:15.473Z,2.74
2023-02-05T18:00:20.975Z,2.78
2023-02-05T18:03:22.426Z,2.80
2023-02-05T18:06:23.901Z,2.80
2023-02-05T18:09:25.320Z,2.76
2023-02-05T18:12:26.977Z,2.75
2023-02-05T18:15:32.418Z,2.79
2023-02-05T18:18:36.283Z,2.84
2023-02-05T18:21:37.829Z,2.83
2023-02-05T18:24:39.328Z,2.81
2023-02-05T18:27:40.982Z,2.72
2023-02-05T18:30:42.973Z,2.74
2023-02-05T18:33:44.763Z,2.83
2023-02-05T18:36:56.500Z,2.81
2023-02-05T18:39:58.189Z,2.80
2023-02-05T18:43:00.395Z,2.78
2023-02-05T18:46:14.310Z,2.82
2023-02-05T18:49:15.744Z,2.83
2023-02-05T18:52:18.509Z,2.81
2023-02-05T18:55:22.548Z,2.84
2023-02-05T18:58:24.772Z,2.77
2023-02-05T19:01:29.064Z,2.73
2023-02-05T19:04:32.948Z,2.73
2023-02-05T19:07:34.777Z,2.61
2023-02-05T19:10:37.349Z,2.65
2023-02-05T19:13:39.577Z,2.70
2023-02-05T19:16:41.858Z,2.62
2023-02-05T19:19:47.454Z,2.70
2023-02-05T19:22:52.834Z,2.75
2023-02-05T19:25:54.258Z,2.61
2023-02-05T19:28:59.312Z,2.71
2023-02-05T19:32:00.802Z,2.80
2023-02-05T19:35:03.855Z,2.73
2023-02-05T19:38:05.528Z,2.72
2023-02-05T19:41:08.637Z,2.77
2023-02-05T19:44:10.208Z,2.75
2023-02-05T19:47:12.780Z,2.72
2023-02-05T19:50:14.277Z,2.78
2023-02-05T19:53:16.735Z,2.84
2023-02-05T19:56:21.657Z,2.74
2023-02-05T19:59:23.309Z,2.74
2023-02-05T20:02:25.843Z,2.78
2023-02-05T20:05:28.656Z,2.80
2023-02-05T20:08:30.179Z,2.85
2023-02-05T20:11:31.850Z,2.85
2023-02-05T20:14:33.306Z,2.83
2023-02-05T20:17:34.788Z,2.86
2023-02-05T20:20:40.252Z,2.87
2023-02-05T20:23:41.984Z,2.87
2023-02-05T20:26:44.715Z,2.86
2023-02-05T20:30:04.891Z,2.86
2023-02-05T20:33:06.376Z,2.86
2023-02-05T20:36:10.639Z,2.83
2023-02-05T20:39:12.124Z,2.87
2023-02-05T20:42:15.085Z,2.91
2023-02-05T20:45:16.706Z,2.95
2023-02-05T20:48:18.207Z,2.95
2023-02-05T20:51:22.718Z,2.94
2023-02-05T20:54:24.638Z,2.88
2023-02-05T20:57:26.183Z,2.86
2023-02-05T21:00:27.892Z,2.86
2023-02-05T21:03:29.413Z,2.92
2023-02-05T21:06:36.906Z,2.88
2023-02-05T21:09:38.354Z,2.78
2023-02-05T21:12:39.921Z,2.76
2023-02-05T21:15:41.428Z,2.80
2023-02-05T21:18:47.759Z,2.75
2023-02-05T21:21:52.460Z,2.74
2023-02-05T21:24:54.052Z,2.69
2023-02-05T21:27:55.672Z,2.64
2023-02-05T21:31:09.319Z,2.63
2023-02-05T21:34:13.587Z,2.66
2023-02-05T21:37:14.989Z,2.63
2023-02-05T21:43:53.150Z,2.73
2023-02-05T21:46:55.309Z,2.80
2023-02-05T21:49:56.757Z,2.82
2023-02-05T21:52:58.344Z,2.76
2023-02-05T21:56:02.284Z,2.67
2023-02-05T21:59:04.118Z,2.75
2023-02-05T22:02:09.309Z,2.80
2023-02-05T22:05:13.393Z,2.84
2023-02-05T22:08:14.933Z,2.88
2023-02-05T22:11:20.811Z,2.92
2023-02-05T22:14:22.602Z,2.87
2023-02-05T22:17:24.517Z,2.86
2023-02-05T22:20:26.093Z,2.89
2023-02-05T22:23:27.619Z,2.88
2023-02-05T22:26:38.723Z,2.92
2023-02-05T22:29:40.568Z,2.89
2023-02-05T22:32:42.145Z,2.94
2023-02-05T22:35:43.569Z,2.95
2023-02-05T22:38:45.077Z,2.96
2023-02-05T22:41:46.524Z,2.99
2023-02-05T22:44:47.954Z,2.98
2023-02-05T22:47:49.438Z,2.99
2023-02-05T22:50:50.968Z,3.02
2023-02-05T22:53:53.671Z,2.99
2023-02-05T22:56:55.147Z,2.93
2023-02-05T22:59:59.031Z,2.92
2023-02-05T23:03:01.216Z,2.80
2023-02-05T23:06:08.946Z,2.85
2023-02-05T23:09:17.179Z,2.84
2023-02-05T23:12:18.687Z,2.85
2023-02-05T23:15:20.154Z,2.82
2023-02-05T23:18:21.577Z,2.84
2023-02-05T23:21:25.992Z,2.86
2023-02-05T23:24:27.562Z,2.93
2023-02-05T23:27:31.543Z,2.89
2023-02-05T23:30:33.049Z,2.92
2023-02-05T23:33:35.842Z,2.85
2023-02-05T23:36:37.584Z,2.83
2023-02-05T23:39:39.009Z,2.83
2023-02-05T23:42:40.659Z,2.83
2023-02-05T23:45:42.402Z,2.86
2023-02-05T23:48:44.262Z,2.93
2023-02-05T23:51:45.770Z,2.96
2023-02-05T23:54:47.291Z,2.89
2023-02-05T23:57:49.349Z,2.89
